Merizo, Guam
Current Conditions -  °F | °C
As of 10:54 PM on Thursday 30 Oct 2014 (Local Time) from PGUM Reporting Station
Few Clouds Few Clouds  
Wind Chill: 79°   Ceiling: Unl
Heat Index: 83°   Visibility: 10mi
Dew Point: 75°   Wind: 7mph
Humidity: 88%   Direction: 120°ESE
Pressure: 29.82"   Gusts: NA
Location:  13.26°N, 144.67°E
Report Text: PGUM 301254Z 12006KT 10SM FEW110 26/24 A2982 RMK AO2 RAE32 SLP091 P0000 T02610239
Loading
Personal Weather Stations






























Interactive Weather Map
Tropical Storm Tracking
New forecast layout! Learn more

10-Day Weather Forecast

Advertisements
Track Severe Weather on mobile